createdAt,value
2016-12-28T00:00:08.812Z,0
2016-12-28T00:00:49.911Z,0
2016-12-28T00:01:31.571Z,0
2016-12-28T00:02:13.112Z,0
2016-12-28T00:02:54.765Z,0
2016-12-28T00:03:36.425Z,0
2016-12-28T00:04:18.120Z,0
2016-12-28T00:04:59.873Z,0
2016-12-28T00:05:41.472Z,0
2016-12-28T00:06:23.099Z,0
2016-12-28T00:07:04.687Z,0
2016-12-28T00:09:46.099Z,0
2016-12-28T00:10:27.514Z,0
2016-12-28T00:11:08.974Z,0
2016-12-28T00:11:49.922Z,0
2016-12-28T00:14:29.816Z,0
2016-12-28T00:15:10.528Z,0
2016-12-28T00:17:31.433Z,0
2016-12-28T00:18:13.219Z,0
2016-12-28T00:18:54.974Z,0
2016-12-28T00:19:36.724Z,0
2016-12-28T00:20:18.419Z,0
2016-12-28T00:21:00.094Z,0
2016-12-28T00:21:41.787Z,0
2016-12-28T00:26:18.224Z,0
2016-12-28T00:27:00.017Z,0
2016-12-28T00:27:41.761Z,0
2016-12-28T00:28:23.539Z,0
2016-12-28T00:29:05.249Z,0
2016-12-28T00:29:46.986Z,0
2016-12-28T00:30:28.444Z,0
2016-12-28T00:31:10.199Z,0
2016-12-28T00:31:51.979Z,0
2016-12-28T00:32:33.716Z,0
2016-12-28T00:33:15.303Z,0
2016-12-28T00:33:57.056Z,0
2016-12-28T00:34:38.781Z,0
2016-12-28T00:35:20.156Z,0
2016-12-28T00:36:01.909Z,0
2016-12-28T00:36:43.596Z,0
2016-12-28T00:37:25.263Z,0
2016-12-28T00:38:07.060Z,0
2016-12-28T00:38:48.779Z,0
2016-12-28T00:39:30.529Z,0
2016-12-28T00:40:12.321Z,0
2016-12-28T00:40:54.059Z,0
2016-12-28T00:41:35.729Z,0
2016-12-28T00:46:12.254Z,0
2016-12-28T00:46:53.982Z,0
2016-12-28T00:47:35.767Z,0
2016-12-28T00:48:17.527Z,0
2016-12-28T00:48:59.289Z,0
2016-12-28T00:49:41.009Z,0
2016-12-28T00:50:22.792Z,0
2016-12-28T00:51:04.557Z,0
2016-12-28T00:51:46.331Z,0
2016-12-28T00:52:28.056Z,0
2016-12-28T00:53:09.830Z,0
2016-12-28T00:53:51.598Z,0
2016-12-28T00:54:33.350Z,0
2016-12-28T00:55:15.045Z,0
2016-12-28T00:55:56.701Z,0
2016-12-28T00:56:38.464Z,0
2016-12-28T00:57:20.031Z,0
2016-12-28T00:58:01.503Z,0
2016-12-28T00:58:43.159Z,0
2016-12-28T00:59:24.754Z,0
2016-12-28T01:00:06.344Z,0
2016-12-28T01:00:47.786Z,0
2016-12-28T01:01:29.509Z,0
2016-12-28T01:02:10.924Z,0
2016-12-28T01:02:52.763Z,0
2016-12-28T01:03:34.466Z,0
2016-12-28T01:04:16.030Z,0
2016-12-28T01:04:57.738Z,0
2016-12-28T01:05:39.418Z,0
2016-12-28T01:06:21.146Z,0
2016-12-28T01:07:02.703Z,0
2016-12-28T01:07:44.299Z,0
2016-12-28T01:08:26.157Z,0
2016-12-28T01:09:07.963Z,0
2016-12-28T01:09:49.737Z,0
2016-12-28T01:10:31.567Z,0
2016-12-28T01:11:13.304Z,0
2016-12-28T01:11:54.987Z,0
2016-12-28T01:12:36.787Z,0
2016-12-28T01:13:18.622Z,0
2016-12-28T01:14:00.378Z,0
2016-12-28T01:14:42.126Z,0
2016-12-28T01:15:23.915Z,0
2016-12-28T01:16:05.683Z,0
2016-12-28T01:16:46.705Z,0
2016-12-28T01:17:27.237Z,0
2016-12-28T01:18:07.771Z,0
2016-12-28T01:18:49.142Z,0
2016-12-28T01:19:30.867Z,0
2016-12-28T01:20:12.667Z,0
2016-12-28T01:20:54.461Z,0
2016-12-28T01:21:36.209Z,0
2016-12-28T01:22:17.975Z,0
2016-12-28T01:22:59.746Z,0
2016-12-28T01:23:41.498Z,0
2016-12-28T01:24:23.304Z,0
2016-12-28T01:25:05.131Z,0
2016-12-28T01:25:46.898Z,0
2016-12-28T01:26:28.660Z,0
2016-12-28T01:27:10.282Z,0
2016-12-28T01:27:51.883Z,0
2016-12-28T01:28:33.695Z,0
2016-12-28T01:29:15.469Z,0
2016-12-28T01:29:57.296Z,0
2016-12-28T01:30:39.043Z,0
2016-12-28T01:31:20.845Z,0
2016-12-28T01:32:02.630Z,0
2016-12-28T01:32:44.413Z,0
2016-12-28T01:33:26.119Z,0
2016-12-28T01:34:07.789Z,0
2016-12-28T01:34:49.530Z,0
2016-12-28T01:35:31.257Z,0
2016-12-28T01:36:13.037Z,0
2016-12-28T01:36:54.807Z,0
2016-12-28T01:37:36.523Z,0
2016-12-28T01:38:18.192Z,0
2016-12-28T01:38:59.911Z,0
2016-12-28T01:39:41.696Z,0
2016-12-28T01:40:23.452Z,0
2016-12-28T01:41:05.189Z,0
2016-12-28T01:45:36.446Z,0
2016-12-28T01:48:17.924Z,0
2016-12-28T01:48:59.553Z,0
2016-12-28T01:49:41.398Z,0
2016-12-28T01:50:23.242Z,0
2016-12-28T01:51:04.677Z,0
2016-12-28T01:51:46.487Z,0
2016-12-28T01:54:28.156Z,0
2016-12-28T01:55:09.860Z,0
2016-12-28T01:57:25.236Z,0
2016-12-28T01:58:06.943Z,0
2016-12-28T01:58:48.607Z,0
2016-12-28T01:59:30.269Z,0
2016-12-28T02:00:12.093Z,0
2016-12-28T02:04:38.027Z,0
2016-12-28T02:07:18.461Z,0
2016-12-28T02:07:58.968Z,0
2016-12-28T02:08:39.519Z,0
2016-12-28T02:09:20.035Z,0
2016-12-28T02:10:00.558Z,0
2016-12-28T02:10:41.087Z,0
2016-12-28T02:11:21.599Z,0
2016-12-28T02:12:02.140Z,0
2016-12-28T02:12:42.665Z,0
2016-12-28T02:13:23.193Z,0
2016-12-28T02:14:03.756Z,0
2016-12-28T02:14:44.284Z,0
2016-12-28T02:15:24.806Z,0
2016-12-28T02:16:05.347Z,0
2016-12-28T02:16:45.888Z,0
2016-12-28T02:17:26.427Z,0
2016-12-28T02:18:06.950Z,0
2016-12-28T02:18:47.482Z,0
2016-12-28T02:19:27.990Z,0
2016-12-28T02:20:08.536Z,0
2016-12-28T02:20:49.039Z,0
2016-12-28T02:21:29.566Z,0
2016-12-28T02:22:10.106Z,0
2016-12-28T02:22:50.650Z,0
2016-12-28T02:23:31.185Z,0
2016-12-28T02:24:11.708Z,0
2016-12-28T02:24:52.227Z,0
2016-12-28T02:25:32.750Z,0
2016-12-28T02:26:13.294Z,0
2016-12-28T02:26:53.832Z,0
2016-12-28T02:27:34.347Z,0
2016-12-28T02:28:14.879Z,0
2016-12-28T02:28:55.403Z,0
2016-12-28T02:29:35.935Z,0
2016-12-28T02:30:16.471Z,0
2016-12-28T02:30:56.988Z,0
2016-12-28T02:31:37.519Z,0
2016-12-28T02:32:18.052Z,0
2016-12-28T02:32:58.641Z,0
2016-12-28T02:33:39.175Z,0
2016-12-28T02:34:19.715Z,0
2016-12-28T02:35:00.250Z,0
2016-12-28T02:35:40.822Z,0
2016-12-28T02:36:21.355Z,0
2016-12-28T02:37:01.881Z,0
2016-12-28T02:37:42.410Z,0
2016-12-28T02:38:22.943Z,0
2016-12-28T02:39:03.477Z,0
2016-12-28T02:39:44.011Z,0
2016-12-28T02:40:24.549Z,0
2016-12-28T02:41:05.090Z,0
2016-12-28T02:41:45.629Z,0
2016-12-28T02:42:26.168Z,0
2016-12-28T02:43:06.703Z,0
2016-12-28T02:43:47.245Z,0
2016-12-28T02:44:27.776Z,0
2016-12-28T02:45:08.313Z,0
2016-12-28T02:45:48.841Z,0
2016-12-28T02:46:29.373Z,0
2016-12-28T02:47:09.899Z,0
2016-12-28T02:47:50.427Z,0
2016-12-28T02:48:30.957Z,0
2016-12-28T02:49:11.481Z,0
2016-12-28T02:49:52.051Z,0
2016-12-28T02:50:32.588Z,0
2016-12-28T02:51:13.111Z,0
2016-12-28T02:51:53.646Z,0
2016-12-28T02:52:34.148Z,0
2016-12-28T02:53:14.696Z,0
2016-12-28T02:53:55.214Z,0
2016-12-28T02:54:35.741Z,0
2016-12-28T02:55:16.265Z,0
2016-12-28T02:55:56.796Z,0
2016-12-28T02:56:37.327Z,0
2016-12-28T02:57:17.863Z,0
2016-12-28T02:57:58.396Z,0
2016-12-28T02:58:38.927Z,0
2016-12-28T02:59:19.460Z,0
2016-12-28T02:59:59.990Z,0
2016-12-28T03:00:40.511Z,0
2016-12-28T03:01:21.039Z,0
2016-12-28T03:02:01.582Z,0
2016-12-28T03:02:42.112Z,0
2016-12-28T03:03:22.651Z,0
2016-12-28T03:04:03.181Z,0
2016-12-28T03:04:43.711Z,0
2016-12-28T03:05:24.244Z,0
2016-12-28T03:06:04.776Z,0
2016-12-28T03:06:45.318Z,0
2016-12-28T03:07:25.851Z,0
2016-12-28T03:08:06.386Z,0
2016-12-28T03:08:46.916Z,0
2016-12-28T03:09:27.449Z,0
2016-12-28T03:10:07.978Z,0
2016-12-28T03:10:48.519Z,0
2016-12-28T03:11:29.053Z,0
2016-12-28T03:12:09.581Z,0
2016-12-28T03:12:50.099Z,0
2016-12-28T03:13:30.631Z,0
2016-12-28T03:14:11.157Z,0
2016-12-28T03:14:51.691Z,0
2016-12-28T03:15:32.229Z,0
2016-12-28T03:16:12.746Z,0
2016-12-28T03:16:53.282Z,0
2016-12-28T03:17:33.815Z,0
2016-12-28T03:18:14.335Z,0
2016-12-28T03:18:54.871Z,0
2016-12-28T03:19:35.401Z,0
2016-12-28T03:20:15.939Z,0
2016-12-28T03:20:56.472Z,0
2016-12-28T03:21:37.018Z,0
2016-12-28T03:22:17.557Z,0
2016-12-28T03:22:58.064Z,0
2016-12-28T03:23:38.613Z,0
2016-12-28T03:24:19.136Z,0
2016-12-28T03:24:59.678Z,0
2016-12-28T03:25:40.210Z,0
2016-12-28T03:26:20.747Z,0
2016-12-28T03:27:01.280Z,0
2016-12-28T03:27:41.795Z,0
2016-12-28T03:28:22.345Z,0
2016-12-28T03:29:02.848Z,0
2016-12-28T03:29:43.381Z,0
2016-12-28T03:30:23.917Z,0
2016-12-28T03:31:04.445Z,0
2016-12-28T03:31:44.975Z,0
2016-12-28T03:32:25.515Z,0
2016-12-28T03:33:06.042Z,0
2016-12-28T03:33:46.588Z,0
2016-12-28T03:34:27.100Z,0
2016-12-28T03:35:07.645Z,0
2016-12-28T03:35:48.182Z,0
2016-12-28T03:36:28.713Z,0
2016-12-28T03:37:09.248Z,0
2016-12-28T03:37:49.865Z,0
2016-12-28T03:38:30.394Z,0
2016-12-28T03:39:10.937Z,0
2016-12-28T03:39:51.476Z,0
2016-12-28T03:40:32.010Z,0
2016-12-28T03:41:12.526Z,0
2016-12-28T03:41:53.050Z,0
2016-12-28T03:42:33.584Z,0
2016-12-28T03:43:14.121Z,0
2016-12-28T03:43:54.650Z,0
2016-12-28T03:44:35.181Z,0
2016-12-28T03:45:15.724Z,0
2016-12-28T03:45:56.269Z,0
2016-12-28T03:46:36.803Z,0
2016-12-28T03:47:17.346Z,0
2016-12-28T03:47:57.879Z,0
2016-12-28T03:48:45.307Z,0
2016-12-28T03:49:25.835Z,0
2016-12-28T03:50:06.363Z,0
2016-12-28T03:50:46.899Z,0
2016-12-28T03:51:27.431Z,0
2016-12-28T03:52:07.955Z,0
2016-12-28T03:52:48.487Z,0
2016-12-28T03:53:29.015Z,0
2016-12-28T03:54:09.549Z,0
2016-12-28T03:54:50.079Z,0
2016-12-28T03:55:30.608Z,0
2016-12-28T03:56:11.128Z,0
2016-12-28T03:56:51.662Z,0
2016-12-28T03:57:32.182Z,0
2016-12-28T03:58:12.724Z,0
2016-12-28T03:58:53.296Z,0
2016-12-28T03:59:33.828Z,0
2016-12-28T04:00:14.363Z,0
2016-12-28T04:00:54.896Z,0
2016-12-28T04:01:35.429Z,0
2016-12-28T04:02:15.961Z,0
2016-12-28T04:02:56.488Z,0
2016-12-28T04:03:37.029Z,0
2016-12-28T04:04:17.561Z,0
2016-12-28T04:04:58.098Z,0
2016-12-28T04:05:38.632Z,0
2016-12-28T04:06:19.163Z,0
2016-12-28T04:06:59.687Z,0
2016-12-28T04:07:40.220Z,0
2016-12-28T04:08:20.751Z,0
2016-12-28T04:09:01.278Z,0
2016-12-28T04:09:41.810Z,0
2016-12-28T04:10:22.343Z,0
2016-12-28T04:11:02.866Z,0
2016-12-28T04:11:43.401Z,0
2016-12-28T04:12:23.927Z,0
2016-12-28T04:13:04.511Z,0
2016-12-28T04:13:45.037Z,0
2016-12-28T04:14:25.569Z,0
2016-12-28T04:15:06.110Z,0
2016-12-28T04:15:46.635Z,0
2016-12-28T04:16:27.171Z,0
2016-12-28T04:17:07.705Z,0
2016-12-28T04:17:48.238Z,0
2016-12-28T04:18:28.765Z,0
2016-12-28T04:19:09.299Z,0
2016-12-28T04:19:49.840Z,0
2016-12-28T04:20:30.373Z,0
2016-12-28T04:21:10.908Z,0
2016-12-28T04:21:51.444Z,0
2016-12-28T04:22:31.977Z,0
2016-12-28T04:23:12.510Z,0
2016-12-28T04:23:53.035Z,0
2016-12-28T04:24:33.579Z,0
2016-12-28T04:25:14.109Z,0
2016-12-28T04:25:54.629Z,0
2016-12-28T04:26:35.166Z,0
2016-12-28T04:27:15.690Z,0
2016-12-28T04:27:56.213Z,0
2016-12-28T04:28:36.753Z,0
2016-12-28T04:29:17.272Z,0
2016-12-28T04:29:57.806Z,0
2016-12-28T04:30:38.331Z,0
2016-12-28T04:31:18.853Z,0
2016-12-28T04:31:59.383Z,0
2016-12-28T04:32:39.909Z,0
2016-12-28T04:33:20.447Z,0
2016-12-28T04:34:01.024Z,0
2016-12-28T04:34:41.557Z,0
2016-12-28T04:35:22.100Z,0
2016-12-28T04:36:02.632Z,0
2016-12-28T04:36:43.166Z,0
2016-12-28T04:37:23.690Z,0
2016-12-28T04:38:04.227Z,0
2016-12-28T04:38:44.752Z,0
2016-12-28T04:39:25.287Z,0
2016-12-28T04:40:05.806Z,0
2016-12-28T04:40:46.334Z,0
2016-12-28T04:41:26.855Z,0
2016-12-28T04:42:07.385Z,0
2016-12-28T04:42:47.920Z,0
2016-12-28T04:43:28.438Z,0
2016-12-28T04:44:08.967Z,0
2016-12-28T04:44:49.497Z,0
2016-12-28T04:45:30.025Z,0
2016-12-28T04:46:10.549Z,0
2016-12-28T04:46:51.082Z,0
2016-12-28T04:47:31.609Z,0
2016-12-28T04:48:12.176Z,0
2016-12-28T04:48:52.712Z,0
2016-12-28T04:49:33.246Z,0
2016-12-28T04:50:13.777Z,0
2016-12-28T04:50:54.317Z,0
2016-12-28T04:51:34.848Z,0
2016-12-28T04:52:15.371Z,0
2016-12-28T04:52:55.904Z,0
2016-12-28T04:53:36.442Z,0
2016-12-28T04:54:16.970Z,0
2016-12-28T04:54:57.512Z,0
2016-12-28T04:55:38.045Z,0
2016-12-28T04:56:18.569Z,0
2016-12-28T04:56:59.090Z,0
2016-12-28T04:57:39.638Z,0
2016-12-28T04:58:20.185Z,0
2016-12-28T04:59:00.717Z,0
2016-12-28T04:59:41.249Z,0
2016-12-28T05:00:21.787Z,0
2016-12-28T05:01:02.310Z,0
2016-12-28T05:01:42.854Z,0
2016-12-28T05:02:23.391Z,0
2016-12-28T05:03:03.933Z,0
2016-12-28T05:03:44.468Z,0
2016-12-28T05:04:24.999Z,0
2016-12-28T05:05:05.525Z,0
2016-12-28T05:05:47.984Z,0
2016-12-28T05:06:28.509Z,0
2016-12-28T05:07:09.036Z,0
2016-12-28T05:07:49.569Z,0
2016-12-28T05:08:30.102Z,0
2016-12-28T05:09:10.632Z,0
2016-12-28T05:09:51.155Z,0
2016-12-28T05:10:31.688Z,0
2016-12-28T05:11:12.217Z,0
2016-12-28T05:11:52.756Z,0
2016-12-28T05:12:33.284Z,0
2016-12-28T05:13:13.798Z,0
2016-12-28T05:13:54.343Z,0
2016-12-28T05:14:34.855Z,0
2016-12-28T05:15:15.408Z,0
2016-12-28T05:15:55.938Z,0
2016-12-28T05:16:36.468Z,0
2016-12-28T05:17:17.007Z,0
2016-12-28T05:17:57.536Z,0
2016-12-28T05:18:38.077Z,0
2016-12-28T05:19:18.608Z,0
2016-12-28T05:19:59.140Z,0
2016-12-28T05:20:39.660Z,0
2016-12-28T05:21:20.197Z,0
2016-12-28T05:22:00.727Z,0
2016-12-28T05:22:41.263Z,0
2016-12-28T05:23:21.808Z,0
2016-12-28T05:24:02.345Z,0
2016-12-28T05:24:42.886Z,0
2016-12-28T05:25:23.409Z,0
2016-12-28T05:26:03.938Z,0
2016-12-28T05:26:44.469Z,0
2016-12-28T05:27:25.007Z,0
2016-12-28T05:28:05.541Z,0
2016-12-28T05:28:46.077Z,0
2016-12-28T05:29:26.610Z,0
2016-12-28T05:30:07.145Z,0
2016-12-28T05:30:47.684Z,0
2016-12-28T05:31:28.218Z,0
2016-12-28T05:32:08.752Z,0
2016-12-28T05:32:49.287Z,0
2016-12-28T05:33:29.810Z,0
2016-12-28T05:34:10.334Z,0
2016-12-28T05:34:50.876Z,0
2016-12-28T05:35:31.429Z,0
2016-12-28T05:36:11.961Z,0
2016-12-28T05:36:52.476Z,0
2016-12-28T05:37:33.009Z,0
2016-12-28T05:38:13.533Z,0
2016-12-28T05:38:54.059Z,0
2016-12-28T05:39:34.573Z,0
2016-12-28T05:40:15.103Z,0
2016-12-28T05:40:55.635Z,0
2016-12-28T05:41:36.179Z,0
2016-12-28T05:42:16.711Z,0
2016-12-28T05:42:57.240Z,0
2016-12-28T05:43:37.770Z,0
2016-12-28T05:44:18.300Z,0
2016-12-28T05:44:58.833Z,0
2016-12-28T05:45:39.372Z,0
2016-12-28T05:46:19.914Z,0
2016-12-28T05:47:00.431Z,0
2016-12-28T05:47:40.963Z,0
2016-12-28T05:48:21.489Z,0
2016-12-28T05:49:02.034Z,0
2016-12-28T05:49:42.578Z,0
2016-12-28T05:50:23.115Z,0
2016-12-28T05:51:03.647Z,0
2016-12-28T05:51:44.175Z,0
2016-12-28T05:52:24.701Z,0
2016-12-28T05:53:05.235Z,0
2016-12-28T05:53:45.769Z,0
2016-12-28T05:54:26.286Z,0
2016-12-28T05:55:06.821Z,0
2016-12-28T05:55:47.355Z,0
2016-12-28T05:56:27.890Z,0
2016-12-28T05:57:08.432Z,0
2016-12-28T05:57:48.937Z,0
2016-12-28T05:58:29.472Z,0
2016-12-28T05:59:10.002Z,0
2016-12-28T05:59:50.531Z,0
2016-12-28T06:00:31.060Z,0
2016-12-28T06:01:11.590Z,0
2016-12-28T06:01:52.095Z,0
2016-12-28T06:02:32.648Z,0
2016-12-28T06:03:13.187Z,0
2016-12-28T06:03:53.716Z,0
2016-12-28T06:04:34.247Z,0
2016-12-28T06:05:14.778Z,0
2016-12-28T06:05:55.315Z,0
2016-12-28T06:06:35.856Z,0
2016-12-28T06:07:16.389Z,0
2016-12-28T06:07:56.930Z,0
2016-12-28T06:08:37.448Z,0
2016-12-28T06:09:17.970Z,0
2016-12-28T06:09:58.505Z,0
2016-12-28T06:10:39.040Z,0
2016-12-28T06:11:19.572Z,0
2016-12-28T06:12:00.103Z,0
2016-12-28T06:12:40.633Z,0
2016-12-28T06:13:21.161Z,0
2016-12-28T06:14:01.693Z,0
2016-12-28T06:14:42.237Z,0
2016-12-28T06:15:22.771Z,0
2016-12-28T06:16:03.293Z,0
2016-12-28T06:16:43.846Z,0
2016-12-28T06:17:24.357Z,0
2016-12-28T06:18:04.889Z,0
2016-12-28T06:18:45.422Z,0
2016-12-28T06:19:25.949Z,0
2016-12-28T06:20:06.506Z,0
2016-12-28T06:20:47.026Z,0
2016-12-28T06:21:27.565Z,0
2016-12-28T06:22:08.102Z,0
2016-12-28T06:22:48.636Z,0
2016-12-28T06:23:29.157Z,0
2016-12-28T06:24:09.689Z,0
2016-12-28T06:24:50.217Z,0
2016-12-28T06:25:30.750Z,0
2016-12-28T06:26:11.280Z,0
2016-12-28T06:26:51.810Z,0
2016-12-28T06:27:32.337Z,0
2016-12-28T06:28:14.509Z,0
2016-12-28T06:28:55.042Z,0
2016-12-28T06:29:35.572Z,0
2016-12-28T06:30:16.105Z,0
2016-12-28T06:30:56.635Z,0
2016-12-28T06:31:37.170Z,0
2016-12-28T06:32:17.711Z,0
2016-12-28T06:32:58.239Z,0
2016-12-28T06:33:38.761Z,0
2016-12-28T06:34:19.287Z,0
2016-12-28T06:34:59.816Z,0
2016-12-28T06:35:40.361Z,0
2016-12-28T06:36:20.913Z,0
2016-12-28T06:37:01.448Z,0
2016-12-28T06:37:41.972Z,0
2016-12-28T06:38:22.502Z,0
2016-12-28T06:39:03.036Z,0
2016-12-28T06:39:43.570Z,0
2016-12-28T06:40:24.112Z,0
2016-12-28T06:41:04.646Z,0
2016-12-28T06:41:45.184Z,0
2016-12-28T06:42:25.716Z,0
2016-12-28T06:43:06.262Z,0
2016-12-28T06:43:46.786Z,0
2016-12-28T06:44:27.320Z,0
2016-12-28T06:45:07.861Z,0
2016-12-28T06:45:48.399Z,0
2016-12-28T06:46:28.960Z,0
2016-12-28T06:47:09.500Z,0
2016-12-28T06:47:50.029Z,0
2016-12-28T06:48:30.568Z,0
2016-12-28T06:49:11.101Z,0
2016-12-28T06:49:51.636Z,0
2016-12-28T06:50:32.168Z,0
2016-12-28T06:51:12.702Z,0
2016-12-28T06:51:53.235Z,0
2016-12-28T06:52:33.765Z,0
2016-12-28T06:53:14.298Z,0
2016-12-28T06:53:54.820Z,0
2016-12-28T06:54:35.355Z,0
2016-12-28T06:55:15.877Z,0
2016-12-28T06:55:56.398Z,0
2016-12-28T06:56:36.931Z,0
2016-12-28T06:57:17.476Z,0
2016-12-28T06:57:58.016Z,0
2016-12-28T06:58:38.558Z,0
2016-12-28T06:59:19.080Z,0
2016-12-28T06:59:59.617Z,0
2016-12-28T07:00:40.149Z,0
2016-12-28T07:01:20.680Z,0
2016-12-28T07:02:01.221Z,0
2016-12-28T07:02:41.762Z,0
2016-12-28T07:03:22.268Z,0
2016-12-28T07:04:02.797Z,0
2016-12-28T07:04:43.326Z,0
2016-12-28T07:05:23.862Z,0
2016-12-28T07:06:04.396Z,0
2016-12-28T07:06:44.923Z,0
2016-12-28T07:07:25.455Z,0
2016-12-28T07:08:06.024Z,0
2016-12-28T07:08:46.554Z,0
2016-12-28T07:09:27.101Z,0
2016-12-28T07:10:07.615Z,0
2016-12-28T07:10:48.137Z,0
2016-12-28T07:11:28.672Z,0
2016-12-28T07:12:09.206Z,0
2016-12-28T07:12:49.733Z,0
2016-12-28T07:13:30.291Z,0
2016-12-28T07:14:10.801Z,0
2016-12-28T07:14:51.334Z,0
2016-12-28T07:15:31.870Z,0
2016-12-28T07:16:12.394Z,0
2016-12-28T07:16:52.936Z,0
2016-12-28T07:17:33.474Z,0
2016-12-28T07:18:14.005Z,0
2016-12-28T07:18:54.540Z,0
2016-12-28T07:19:35.072Z,0
2016-12-28T07:20:15.602Z,0
2016-12-28T07:20:56.129Z,0
2016-12-28T07:21:36.652Z,0
2016-12-28T07:22:17.177Z,0
2016-12-28T07:22:57.711Z,0
2016-12-28T07:23:38.247Z,0
2016-12-28T07:24:18.784Z,0
2016-12-28T07:24:59.315Z,0
2016-12-28T07:25:39.855Z,0
2016-12-28T07:26:20.411Z,0
2016-12-28T07:27:00.947Z,0
2016-12-28T07:27:41.465Z,0
2016-12-28T07:28:22.003Z,0
2016-12-28T07:29:02.529Z,0
2016-12-28T07:29:43.057Z,0
2016-12-28T07:30:23.590Z,0
2016-12-28T07:31:04.163Z,0
2016-12-28T07:31:44.686Z,0
2016-12-28T07:32:25.236Z,0
2016-12-28T07:33:05.755Z,0
2016-12-28T07:33:46.282Z,0
2016-12-28T07:34:26.810Z,0
2016-12-28T07:35:07.335Z,0
2016-12-28T07:35:47.867Z,0
2016-12-28T07:36:28.404Z,0
2016-12-28T07:37:08.908Z,0
2016-12-28T07:37:49.432Z,0
2016-12-28T07:38:29.957Z,0
2016-12-28T07:39:10.493Z,0
2016-12-28T07:39:51.035Z,0
2016-12-28T07:40:31.563Z,0
2016-12-28T07:41:12.096Z,0
2016-12-28T07:41:52.618Z,0
2016-12-28T07:42:33.156Z,0
2016-12-28T07:43:13.692Z,0
2016-12-28T07:43:54.245Z,0
2016-12-28T07:44:34.789Z,0
2016-12-28T07:45:15.287Z,0
2016-12-28T07:45:55.818Z,0
2016-12-28T07:46:36.342Z,0
2016-12-28T07:47:16.866Z,0
2016-12-28T07:47:57.405Z,5
2016-12-28T07:48:37.955Z,5
2016-12-28T07:49:18.489Z,5
2016-12-28T07:49:59.014Z,5
2016-12-28T07:50:39.682Z,5
2016-12-28T07:51:20.231Z,5
2016-12-28T07:52:00.765Z,5
2016-12-28T07:52:41.300Z,5
2016-12-28T07:53:21.836Z,5
2016-12-28T07:54:02.357Z,5
2016-12-28T07:54:42.890Z,5
2016-12-28T07:55:23.428Z,5
2016-12-28T07:56:03.972Z,5
2016-12-28T07:56:44.516Z,10
2016-12-28T07:57:25.028Z,10
2016-12-28T07:58:05.566Z,10
2016-12-28T07:58:46.094Z,10
2016-12-28T07:59:26.621Z,10
2016-12-28T08:00:07.151Z,10
2016-12-28T08:00:47.685Z,10
2016-12-28T08:01:28.221Z,10
2016-12-28T08:02:08.741Z,10
2016-12-28T08:02:49.273Z,10
2016-12-28T08:03:29.820Z,10
2016-12-28T08:04:10.833Z,15
2016-12-28T08:04:51.344Z,15
2016-12-28T08:05:31.885Z,15
2016-12-28T08:06:12.412Z,15
2016-12-28T08:06:52.933Z,15
2016-12-28T08:07:33.470Z,15
2016-12-28T08:08:14.008Z,15
2016-12-28T08:08:54.534Z,15
2016-12-28T08:09:35.062Z,15
2016-12-28T08:10:15.577Z,15
2016-12-28T08:10:56.107Z,15
2016-12-28T08:11:36.638Z,15
2016-12-28T08:12:17.176Z,15
2016-12-28T08:12:57.713Z,15
2016-12-28T08:13:38.257Z,15
2016-12-28T08:14:18.785Z,15
2016-12-28T08:14:59.315Z,15
2016-12-28T08:15:39.830Z,15
2016-12-28T08:16:20.351Z,20
2016-12-28T08:17:00.888Z,15
2016-12-28T08:17:41.407Z,20
2016-12-28T08:18:21.948Z,20
2016-12-28T08:19:02.488Z,20
2016-12-28T08:19:43.025Z,20
2016-12-28T08:20:23.619Z,25
2016-12-28T08:21:04.153Z,25
2016-12-28T08:21:44.688Z,25
2016-12-28T08:22:25.219Z,25
2016-12-28T08:23:05.770Z,25
2016-12-28T08:23:46.299Z,25
2016-12-28T08:24:26.818Z,25
2016-12-28T08:25:07.354Z,25
2016-12-28T08:25:47.880Z,25
2016-12-28T08:26:28.427Z,25
2016-12-28T08:27:09.002Z,30
2016-12-28T08:27:49.544Z,30
2016-12-28T08:28:30.099Z,30
2016-12-28T08:29:10.629Z,35
2016-12-28T08:29:51.156Z,30
2016-12-28T08:30:31.687Z,30
2016-12-28T08:31:12.214Z,30
2016-12-28T08:31:52.743Z,30
2016-12-28T08:32:33.304Z,30
2016-12-28T08:33:13.844Z,30
2016-12-28T08:33:54.383Z,35
2016-12-28T08:34:34.930Z,35
2016-12-28T08:35:15.448Z,35
2016-12-28T08:35:55.978Z,45
2016-12-28T08:36:36.506Z,50
2016-12-28T08:37:17.033Z,45
2016-12-28T08:37:57.568Z,45
2016-12-28T08:38:38.096Z,45
2016-12-28T08:39:18.637Z,45
2016-12-28T08:39:59.203Z,40
2016-12-28T08:40:39.738Z,45
2016-12-28T08:41:20.277Z,45
2016-12-28T08:42:00.794Z,50
2016-12-28T08:42:41.342Z,55
2016-12-28T08:43:21.868Z,55
2016-12-28T08:44:02.397Z,50
2016-12-28T08:44:42.915Z,55
2016-12-28T08:45:23.465Z,60
2016-12-28T08:46:04.003Z,65
2016-12-28T08:46:44.508Z,65
2016-12-28T08:47:25.033Z,65
2016-12-28T08:48:05.571Z,65
2016-12-28T08:48:46.122Z,65
2016-12-28T08:49:26.647Z,60
2016-12-28T08:50:07.167Z,55
2016-12-28T08:50:47.688Z,60
2016-12-28T08:51:28.222Z,70
2016-12-28T08:52:08.755Z,75
2016-12-28T08:52:49.276Z,75
2016-12-28T08:53:29.793Z,65
2016-12-28T08:54:10.321Z,60
2016-12-28T08:54:50.857Z,55
2016-12-28T08:55:31.388Z,55
2016-12-28T08:56:11.918Z,55
2016-12-28T08:56:52.425Z,50
2016-12-28T08:57:32.939Z,50
2016-12-28T08:58:13.436Z,50
2016-12-28T08:58:53.971Z,55
2016-12-28T08:59:34.505Z,60
2016-12-28T09:00:15.048Z,65
2016-12-28T09:00:55.564Z,65
2016-12-28T09:01:36.186Z,60
2016-12-28T09:02:16.710Z,50
2016-12-28T09:02:57.244Z,45
2016-12-28T09:03:37.788Z,45
2016-12-28T09:04:18.325Z,40
2016-12-28T09:04:58.854Z,40
2016-12-28T09:05:39.380Z,45
2016-12-28T09:06:19.918Z,45
2016-12-28T09:07:00.458Z,50
2016-12-28T09:07:40.990Z,55
2016-12-28T09:08:21.507Z,55
2016-12-28T09:09:02.015Z,60
2016-12-28T09:09:42.563Z,60
2016-12-28T09:10:23.100Z,55
2016-12-28T09:11:03.642Z,60
2016-12-28T09:11:44.155Z,60
2016-12-28T09:12:24.690Z,55
2016-12-28T09:13:05.225Z,50
2016-12-28T09:13:45.758Z,55
2016-12-28T09:14:26.317Z,55
2016-12-28T09:15:06.846Z,55
2016-12-28T09:15:47.364Z,55
2016-12-28T09:16:27.894Z,60
2016-12-28T09:17:08.419Z,60
2016-12-28T09:17:48.955Z,55
2016-12-28T09:18:29.475Z,55
2016-12-28T09:19:09.992Z,55
2016-12-28T09:19:50.528Z,55
2016-12-28T09:20:31.061Z,55
2016-12-28T09:21:11.592Z,60
2016-12-28T09:21:52.122Z,65
2016-12-28T09:22:32.650Z,60
2016-12-28T09:23:13.184Z,55
2016-12-28T09:23:53.718Z,55
2016-12-28T09:24:34.256Z,55
2016-12-28T09:25:14.798Z,60
2016-12-28T09:25:55.315Z,60
2016-12-28T09:26:35.846Z,60
2016-12-28T09:27:16.373Z,60
2016-12-28T09:27:56.912Z,65
2016-12-28T09:28:37.447Z,65
2016-12-28T09:29:17.983Z,65
2016-12-28T09:29:58.515Z,60
2016-12-28T09:30:39.057Z,55
2016-12-28T09:31:19.590Z,60
2016-12-28T09:32:00.123Z,65
2016-12-28T09:32:40.656Z,75
2016-12-28T09:33:21.188Z,80
2016-12-28T09:34:01.734Z,80
2016-12-28T09:34:42.266Z,80
2016-12-28T09:35:22.799Z,80
2016-12-28T09:36:03.324Z,80
2016-12-28T09:36:43.858Z,75
2016-12-28T09:37:24.368Z,75
2016-12-28T09:38:04.903Z,70
2016-12-28T09:38:45.439Z,75
2016-12-28T09:39:25.974Z,80
2016-12-28T09:40:06.496Z,90
2016-12-28T09:40:48.757Z,90
2016-12-28T09:41:29.290Z,80
2016-12-28T09:42:09.842Z,75
2016-12-28T09:42:50.372Z,75
2016-12-28T09:43:30.939Z,75
2016-12-28T09:44:11.433Z,85
2016-12-28T09:44:51.963Z,95
2016-12-28T09:45:32.495Z,95
2016-12-28T09:46:13.030Z,90
2016-12-28T09:46:53.556Z,95
2016-12-28T09:47:34.098Z,95
2016-12-28T09:48:14.623Z,100
2016-12-28T09:48:55.137Z,105
2016-12-28T09:49:35.692Z,115
2016-12-28T09:50:16.226Z,115
2016-12-28T09:50:56.753Z,110
2016-12-28T09:51:37.278Z,105
2016-12-28T09:52:17.810Z,100
2016-12-28T09:52:58.340Z,100
2016-12-28T09:53:38.872Z,95
2016-12-28T09:54:19.402Z,100
2016-12-28T09:54:59.941Z,100
2016-12-28T09:55:40.469Z,100
2016-12-28T09:56:20.991Z,100
2016-12-28T09:57:01.523Z,100
2016-12-28T09:57:42.057Z,100
2016-12-28T09:58:22.633Z,100
2016-12-28T09:59:03.137Z,95
2016-12-28T09:59:43.669Z,90
2016-12-28T10:00:24.195Z,90
2016-12-28T10:01:04.721Z,85
2016-12-28T10:01:45.247Z,85
2016-12-28T10:02:25.767Z,85
2016-12-28T10:03:06.296Z,100
2016-12-28T10:03:46.840Z,105
2016-12-28T10:04:27.375Z,110
2016-12-28T10:05:07.907Z,115
2016-12-28T10:05:48.437Z,115
2016-12-28T10:06:28.967Z,105
2016-12-28T10:07:09.509Z,100
2016-12-28T10:07:50.030Z,100
2016-12-28T10:08:30.588Z,105
2016-12-28T10:09:11.096Z,115
2016-12-28T10:09:51.621Z,120
2016-12-28T10:10:32.156Z,115
2016-12-28T10:11:12.709Z,105
2016-12-28T10:11:53.244Z,100
2016-12-28T10:12:33.756Z,95
2016-12-28T10:13:14.282Z,95
2016-12-28T10:13:54.819Z,95
2016-12-28T10:14:35.339Z,95
2016-12-28T10:15:15.864Z,100
2016-12-28T10:15:56.409Z,105
2016-12-28T10:16:36.967Z,105
2016-12-28T10:17:17.497Z,105
2016-12-28T10:17:58.049Z,110
2016-12-28T10:18:38.581Z,115
2016-12-28T10:19:19.115Z,115
2016-12-28T10:19:59.660Z,115
2016-12-28T10:20:40.192Z,115
2016-12-28T10:21:20.726Z,115
2016-12-28T10:22:01.264Z,115
2016-12-28T10:22:41.786Z,120
2016-12-28T10:23:22.318Z,120
2016-12-28T10:24:02.847Z,110